This is the latest recevied weather packets stored in our database for station/object DO7CRZ-12. If no packets are shown the sender has not sent any weather packets the latest 10 day(s).
| Time | Temp. | Humidity | Pressure | Rain* | Wind** | Luminosity | Snow |
|---|---|---|---|---|---|---|---|
| 1777495641 | 7.22° C | 36% | 1030.1 hPa | 0 mm | - | 0 W/m² | - |
| 1777494450 | 7.78° C | 34% | 1029.9 hPa | 0 mm | - | 0 W/m² | - |
| 1777493847 | 8.33° C | 34% | 1030 hPa | 0 mm | - | 0 W/m² | - |
| 1777493244 | 8.89° C | 32% | 1029.9 hPa | 0 mm | - | 0 W/m² | - |
| 1777492641 | 8.89° C | 31% | 1030 hPa | 0 mm | - | 0 W/m² | - |
| 1777492039 | 8.89° C | 30% | 1029.9 hPa | 0 mm | - | 0 W/m² | - |
| 1777490847 | 9.44° C | 28% | 1029.9 hPa | 0 mm | - | 0 W/m² | - |
| 1777490245 | 10° C | 27% | 1029.7 hPa | 0 mm | - | 0 W/m² | - |
| 1777489642 | 10° C | 26% | 1029.6 hPa | 0 mm | - | 0 W/m² | - |
| 1777489039 | 10° C | 25% | 1029.6 hPa | 0 mm | - | 0 W/m² | - |
| 1777488436 | 10.56° C | 24% | 1029.5 hPa | 0 mm | - | 0 W/m² | - |
| 1777487849 | 10.56° C | 24% | 1029.4 hPa | 0 mm | - | 0 W/m² | - |
| 1777487246 | 10.56° C | 24% | 1029.3 hPa | 0 mm | - | 0 W/m² | - |
| 1777486040 | 11.67° C | 22% | 1029.2 hPa | 0 mm | - | 5 W/m² | - |
| 1777485437 | 11.67° C | 21% | 1029.1 hPa | 0 mm | - | 7 W/m² | - |
| 1777484849 | 12.78° C | 21% | 1028.9 hPa | 0 mm | - | 10 W/m² | - |
| 1777484246 | 13.33° C | 23% | 1029 hPa | 0 mm | - | 14 W/m² | - |
| 1777483643 | 14.44° C | 21% | 1028.8 hPa | 0 mm | - | 21 W/m² | - |
| 1777483041 | 16.11° C | 19% | 1028.7 hPa | 0 mm | - | 27 W/m² | - |
| 1777482438 | 19.44° C | 16% | 1028.6 hPa | 0 mm | - | 112 W/m² | - |
| 1777481850 | 20.56° C | 15% | 1028.5 hPa | 0 mm | - | 124 W/m² | - |
| 1777481247 | 21.11° C | 16% | 1028.4 hPa | 0 mm | - | 138 W/m² | - |
| 1777480644 | 21.11° C | 15% | 1028.5 hPa | 0 mm | - | 154 W/m² | - |
| 1777480041 | 21.11° C | 15% | 1028.3 hPa | 0 mm | - | 170 W/m² | - |
| 1777478835 | 21.67° C | 15% | 1028.3 hPa | 0 mm | - | 177 W/m² | - |
* Rain latest hour (hover to see other rain measurements)
** Current wind speed in m/s (hover to see current wind gust speed)